Estación Meteorológica Peña el Pijo (Robertgarden) [ 02/03/23 04:34:59 CET ]

Fecha Hora Presion(HPa) Temp (°C) Humedad % Rocio (°C) Viento ( m/s) Direccion Lluvia 1Hora(mm) Lluvia 24H(mm) LLuvia Total(mm)
2010-Feb-14 01:01:15 998.600 -1.2 91 -2.5         76.66
2010-Feb-14 02:03:14 998.900 -1.2 91 -2.5         76.66
2010-Feb-14 03:01:12 998.700 -1.2 91 -2.5         76.66
2010-Feb-14 04:01:17 998.700 -1.2 92 -2.3         76.66
2010-Feb-14 05:01:13 998.100 -1.3 92 -2.4         76.66
2010-Feb-14 06:01:13 998.000 -1.5 93 -2.5         76.66
2010-Feb-14 07:01:11 998.300 -1.7 93 -2.7         76.66
2010-Feb-14 08:01:16 998.900 -3.1 90 -4.5         76.66
2010-Feb-14 09:01:13 999.300 -3.4 88 -5.1         76.66
2010-Feb-14 10:01:12 999.100 1.1 78 -2.4         76.66
2010-Feb-14 11:01:11 998.700 2.3 72 -2.2         76.66
2010-Feb-14 12:01:13 998.600 3.5 67 -2.1         76.66
2010-Feb-14 13:01:17 998.200 6.1 64 -0.2         76.66
2010-Feb-14 14:01:14 997.700 5.0 64 -1.3 1.1 N     76.66
2010-Feb-14 15:01:17 997.600 5.2 65 -0.9         76.66
2010-Feb-14 16:01:13 996.800 4.2 69 -1.0         76.66
2010-Feb-14 17:01:15 996.200 5.9 69 0.7         76.66
2010-Feb-14 18:01:14 995.600 2.9 75 -1.1         76.66
2010-Feb-14 19:01:13 997.100 1.8 81 -1.1         76.66
2010-Feb-14 20:01:12 996.100 1.1 84 -1.4         76.66
2010-Feb-14 21:01:15 996.300 0.8 83 -1.8         76.66
2010-Feb-14 22:01:15 996.200 -0.1 86 -2.1         76.66
2010-Feb-14 23:01:12 995.200 -0.4 88 -2.1         76.66

Temperatura Máxima:    Temperatura Mínima:-3°
Presión Máxima:999.300 Hpa    Presión Mínima:995.200 Hpa


Volver